< < Back
Terminal Aerodrome Forecast


Current Version              Previous Versions:   1  2  3  4  5  6  7  8  9  

Terminal Aerodrome Forecast

397
FTUS44 KOHX 262358 AAA
TAFBNA
TAF AMD
KBNA 262358Z 2700/2724 07009KT P6SM -RA VCTS BKN020CB BKN070
     FM270300 13007KT P6SM VCSH BKN100
     FM270500 17005KT P6SM SCT100 BKN250
     FM271700 18009G16KT P6SM BKN250=

Latest METAR

252
SAUS70 KWBC 270200 RRG
MTRBNA
METAR KBNA 270153Z 07005KT 10SM OVC170 21/18 A3006 RMK AO2 SLP172
T02110183


USA.gov is the U.S. government's official web portal to all federal, state and local government web resources and services.